sensor_id;sensor_type;location;lat;lon;timestamp;P1;durP1;ratioP1;P2;durP2;ratioP2
39848;SDS011;25518;47.878;15.914;2022-09-13T00:01:36;3.85;;;2.00;;
39848;SDS011;25518;47.878;15.914;2022-09-13T00:04:02;3.50;;;2.00;;
39848;SDS011;25518;47.878;15.914;2022-09-13T00:06:29;4.68;;;2.53;;
39848;SDS011;25518;47.878;15.914;2022-09-13T00:08:55;3.25;;;1.92;;
39848;SDS011;25518;47.878;15.914;2022-09-13T00:11:23;4.17;;;2.07;;
39848;SDS011;25518;47.878;15.914;2022-09-13T00:13:50;3.43;;;2.03;;
39848;SDS011;25518;47.878;15.914;2022-09-13T00:16:17;4.75;;;2.17;;
39848;SDS011;25518;47.878;15.914;2022-09-13T00:18:44;3.47;;;2.05;;
39848;SDS011;25518;47.878;15.914;2022-09-13T00:21:13;4.50;;;1.95;;
39848;SDS011;25518;47.878;15.914;2022-09-13T00:23:42;2.92;;;1.80;;
39848;SDS011;25518;47.878;15.914;2022-09-13T00:26:09;4.85;;;1.83;;
39848;SDS011;25518;47.878;15.914;2022-09-13T00:28:36;3.67;;;1.83;;
39848;SDS011;25518;47.878;15.914;2022-09-13T00:31:04;3.40;;;1.90;;
39848;SDS011;25518;47.878;15.914;2022-09-13T00:33:31;2.97;;;1.70;;
39848;SDS011;25518;47.878;15.914;2022-09-13T00:35:57;3.30;;;1.92;;
39848;SDS011;25518;47.878;15.914;2022-09-13T00:38:23;7.35;;;1.90;;
39848;SDS011;25518;47.878;15.914;2022-09-13T00:40:50;3.75;;;2.40;;
39848;SDS011;25518;47.878;15.914;2022-09-13T00:43:18;4.70;;;2.03;;
39848;SDS011;25518;47.878;15.914;2022-09-13T00:45:45;4.88;;;1.92;;
39848;SDS011;25518;47.878;15.914;2022-09-13T00:48:16;4.47;;;1.90;;
39848;SDS011;25518;47.878;15.914;2022-09-13T00:50:44;3.17;;;1.80;;
39848;SDS011;25518;47.878;15.914;2022-09-13T00:53:14;3.40;;;1.85;;
39848;SDS011;25518;47.878;15.914;2022-09-13T00:55:42;3.05;;;1.88;;
39848;SDS011;25518;47.878;15.914;2022-09-13T00:58:11;4.03;;;1.90;;
39848;SDS011;25518;47.878;15.914;2022-09-13T01:00:38;3.90;;;2.00;;
39848;SDS011;25518;47.878;15.914;2022-09-13T01:03:06;5.20;;;2.05;;
39848;SDS011;25518;47.878;15.914;2022-09-13T01:05:35;5.32;;;2.13;;
39848;SDS011;25518;47.878;15.914;2022-09-13T01:08:02;3.33;;;1.90;;
39848;SDS011;25518;47.878;15.914;2022-09-13T01:10:30;3.67;;;1.83;;
39848;SDS011;25518;47.878;15.914;2022-09-13T01:13:03;2.95;;;1.70;;
39848;SDS011;25518;47.878;15.914;2022-09-13T01:15:37;2.60;;;1.60;;
39848;SDS011;25518;47.878;15.914;2022-09-13T01:18:03;5.75;;;2.08;;
39848;SDS011;25518;47.878;15.914;2022-09-13T01:20:38;3.25;;;1.90;;
39848;SDS011;25518;47.878;15.914;2022-09-13T01:23:11;3.00;;;1.77;;
39848;SDS011;25518;47.878;15.914;2022-09-13T01:30:42;4.40;;;1.83;;
39848;SDS011;25518;47.878;15.914;2022-09-13T01:43:41;3.58;;;1.70;;
39848;SDS011;25518;47.878;15.914;2022-09-13T01:46:04;3.10;;;1.80;;
39848;SDS011;25518;47.878;15.914;2022-09-13T01:51:03;2.85;;;1.50;;
39848;SDS011;25518;47.878;15.914;2022-09-13T01:53:34;2.35;;;1.40;;
39848;SDS011;25518;47.878;15.914;2022-09-13T01:56:02;3.42;;;2.00;;
39848;SDS011;25518;47.878;15.914;2022-09-13T01:58:47;3.80;;;1.45;;
39848;SDS011;25518;47.878;15.914;2022-09-13T02:04:19;3.50;;;1.73;;
39848;SDS011;25518;47.878;15.914;2022-09-13T02:06:33;5.82;;;1.85;;
39848;SDS011;25518;47.878;15.914;2022-09-13T02:09:02;3.10;;;1.80;;
39848;SDS011;25518;47.878;15.914;2022-09-13T02:11:33;2.88;;;1.70;;
39848;SDS011;25518;47.878;15.914;2022-09-13T02:18:58;3.72;;;1.75;;
39848;SDS011;25518;47.878;15.914;2022-09-13T02:21:29;2.95;;;1.60;;
39848;SDS011;25518;47.878;15.914;2022-09-13T02:23:59;3.45;;;1.65;;
39848;SDS011;25518;47.878;15.914;2022-09-13T02:26:25;4.38;;;1.50;;
39848;SDS011;25518;47.878;15.914;2022-09-13T02:28:53;3.33;;;1.70;;
39848;SDS011;25518;47.878;15.914;2022-09-13T02:31:24;4.18;;;1.77;;
39848;SDS011;25518;47.878;15.914;2022-09-13T02:33:53;6.35;;;1.73;;
39848;SDS011;25518;47.878;15.914;2022-09-13T02:36:23;2.72;;;1.60;;
39848;SDS011;25518;47.878;15.914;2022-09-13T02:38:51;4.68;;;1.95;;
39848;SDS011;25518;47.878;15.914;2022-09-13T02:43:55;2.70;;;1.55;;
39848;SDS011;25518;47.878;15.914;2022-09-13T02:46:43;3.43;;;1.83;;
39848;SDS011;25518;47.878;15.914;2022-09-13T02:49:10;2.80;;;1.50;;
39848;SDS011;25518;47.878;15.914;2022-09-13T02:54:11;3.58;;;2.00;;
39848;SDS011;25518;47.878;15.914;2022-09-13T02:56:49;3.28;;;1.90;;
39848;SDS011;25518;47.878;15.914;2022-09-13T02:59:17;2.92;;;1.70;;
39848;SDS011;25518;47.878;15.914;2022-09-13T03:18:50;2.97;;;1.77;;
39848;SDS011;25518;47.878;15.914;2022-09-13T03:21:28;3.67;;;1.40;;
39848;SDS011;25518;47.878;15.914;2022-09-13T03:31:26;3.13;;;1.70;;
39848;SDS011;25518;47.878;15.914;2022-09-13T03:33:59;3.45;;;1.95;;
39848;SDS011;25518;47.878;15.914;2022-09-13T03:38:59;3.67;;;1.83;;
39848;SDS011;25518;47.878;15.914;2022-09-13T03:41:29;4.80;;;1.80;;
39848;SDS011;25518;47.878;15.914;2022-09-13T03:43:59;3.90;;;1.67;;
39848;SDS011;25518;47.878;15.914;2022-09-13T03:46:28;4.03;;;1.80;;
39848;SDS011;25518;47.878;15.914;2022-09-13T03:48:55;3.67;;;1.95;;
39848;SDS011;25518;47.878;15.914;2022-09-13T03:51:23;3.75;;;2.10;;
39848;SDS011;25518;47.878;15.914;2022-09-13T03:53:52;2.85;;;1.65;;
39848;SDS011;25518;47.878;15.914;2022-09-13T03:56:20;3.65;;;1.88;;
39848;SDS011;25518;47.878;15.914;2022-09-13T03:58:47;3.80;;;1.85;;
39848;SDS011;25518;47.878;15.914;2022-09-13T04:01:15;3.47;;;1.70;;
39848;SDS011;25518;47.878;15.914;2022-09-13T04:03:43;3.78;;;1.85;;
39848;SDS011;25518;47.878;15.914;2022-09-13T04:06:09;5.20;;;1.92;;
39848;SDS011;25518;47.878;15.914;2022-09-13T04:08:35;3.72;;;2.00;;
39848;SDS011;25518;47.878;15.914;2022-09-13T04:11:02;4.18;;;1.70;;
39848;SDS011;25518;47.878;15.914;2022-09-13T04:13:28;3.67;;;1.90;;
39848;SDS011;25518;47.878;15.914;2022-09-13T04:15:54;3.83;;;2.00;;
39848;SDS011;25518;47.878;15.914;2022-09-13T04:18:20;4.25;;;1.80;;
39848;SDS011;25518;47.878;15.914;2022-09-13T04:20:55;3.42;;;1.70;;
39848;SDS011;25518;47.878;15.914;2022-09-13T04:23:23;2.95;;;1.83;;
39848;SDS011;25518;47.878;15.914;2022-09-13T04:25:51;3.42;;;1.73;;
39848;SDS011;25518;47.878;15.914;2022-09-13T04:28:18;4.80;;;2.00;;
39848;SDS011;25518;47.878;15.914;2022-09-13T04:30:46;4.40;;;1.70;;
39848;SDS011;25518;47.878;15.914;2022-09-13T04:33:12;4.70;;;2.22;;
39848;SDS011;25518;47.878;15.914;2022-09-13T04:35:38;3.45;;;1.70;;
39848;SDS011;25518;47.878;15.914;2022-09-13T04:38:05;3.08;;;1.80;;
39848;SDS011;25518;47.878;15.914;2022-09-13T04:40:33;3.60;;;1.83;;
39848;SDS011;25518;47.878;15.914;2022-09-13T04:42:59;3.53;;;2.00;;
39848;SDS011;25518;47.878;15.914;2022-09-13T04:45:27;4.43;;;1.80;;
39848;SDS011;25518;47.878;15.914;2022-09-13T04:47:53;3.40;;;1.88;;
39848;SDS011;25518;47.878;15.914;2022-09-13T04:50:22;3.30;;;1.90;;
39848;SDS011;25518;47.878;15.914;2022-09-13T04:52:49;3.30;;;1.80;;
39848;SDS011;25518;47.878;15.914;2022-09-13T04:55:16;3.28;;;2.25;;
39848;SDS011;25518;47.878;15.914;2022-09-13T04:57:42;3.50;;;1.97;;
39848;SDS011;25518;47.878;15.914;2022-09-13T05:00:08;2.75;;;1.70;;
39848;SDS011;25518;47.878;15.914;2022-09-13T05:02:35;4.30;;;1.83;;
39848;SDS011;25518;47.878;15.914;2022-09-13T05:05:01;3.42;;;2.05;;
39848;SDS011;25518;47.878;15.914;2022-09-13T05:07:28;3.00;;;1.90;;
39848;SDS011;25518;47.878;15.914;2022-09-13T05:09:54;3.13;;;1.80;;
39848;SDS011;25518;47.878;15.914;2022-09-13T05:12:20;4.90;;;2.80;;
39848;SDS011;25518;47.878;15.914;2022-09-13T05:14:46;3.28;;;1.77;;
39848;SDS011;25518;47.878;15.914;2022-09-13T05:17:13;3.75;;;2.00;;
39848;SDS011;25518;47.878;15.914;2022-09-13T05:19:39;3.70;;;1.60;;
39848;SDS011;25518;47.878;15.914;2022-09-13T05:22:05;2.70;;;1.50;;
39848;SDS011;25518;47.878;15.914;2022-09-13T05:24:31;3.60;;;1.70;;
39848;SDS011;25518;47.878;15.914;2022-09-13T05:26:58;3.28;;;1.58;;
39848;SDS011;25518;47.878;15.914;2022-09-13T05:29:24;3.20;;;1.83;;
39848;SDS011;25518;47.878;15.914;2022-09-13T05:31:50;3.30;;;1.50;;
39848;SDS011;25518;47.878;15.914;2022-09-13T05:34:16;2.88;;;1.52;;
39848;SDS011;25518;47.878;15.914;2022-09-13T05:36:44;3.40;;;1.85;;
39848;SDS011;25518;47.878;15.914;2022-09-13T05:39:12;4.47;;;1.70;;
39848;SDS011;25518;47.878;15.914;2022-09-13T05:41:40;2.80;;;1.40;;
39848;SDS011;25518;47.878;15.914;2022-09-13T05:44:06;2.80;;;1.60;;
39848;SDS011;25518;47.878;15.914;2022-09-13T05:46:33;2.60;;;1.60;;
39848;SDS011;25518;47.878;15.914;2022-09-13T05:49:00;2.35;;;1.45;;
39848;SDS011;25518;47.878;15.914;2022-09-13T05:51:26;2.97;;;1.58;;
39848;SDS011;25518;47.878;15.914;2022-09-13T05:53:53;2.83;;;1.60;;
39848;SDS011;25518;47.878;15.914;2022-09-13T05:56:22;5.30;;;2.20;;
39848;SDS011;25518;47.878;15.914;2022-09-13T05:58:49;2.50;;;1.40;;
39848;SDS011;25518;47.878;15.914;2022-09-13T06:01:16;2.60;;;1.55;;
39848;SDS011;25518;47.878;15.914;2022-09-13T06:03:47;3.33;;;1.75;;
39848;SDS011;25518;47.878;15.914;2022-09-13T06:06:14;3.05;;;1.67;;
39848;SDS011;25518;47.878;15.914;2022-09-13T06:08:40;3.22;;;1.85;;
39848;SDS011;25518;47.878;15.914;2022-09-13T06:11:08;2.95;;;1.48;;
39848;SDS011;25518;47.878;15.914;2022-09-13T06:13:35;2.28;;;1.35;;
39848;SDS011;25518;47.878;15.914;2022-09-13T06:16:03;3.00;;;1.80;;
39848;SDS011;25518;47.878;15.914;2022-09-13T06:18:30;3.00;;;1.50;;
39848;SDS011;25518;47.878;15.914;2022-09-13T06:20:58;2.67;;;1.40;;
39848;SDS011;25518;47.878;15.914;2022-09-13T06:23:26;3.10;;;1.63;;
39848;SDS011;25518;47.878;15.914;2022-09-13T06:26:00;3.10;;;1.60;;
39848;SDS011;25518;47.878;15.914;2022-09-13T06:28:27;2.40;;;1.40;;
39848;SDS011;25518;47.878;15.914;2022-09-13T06:31:01;2.70;;;1.60;;
39848;SDS011;25518;47.878;15.914;2022-09-13T06:33:27;3.08;;;1.70;;
39848;SDS011;25518;47.878;15.914;2022-09-13T06:35:54;2.70;;;1.70;;
39848;SDS011;25518;47.878;15.914;2022-09-13T06:38:20;2.83;;;1.50;;
39848;SDS011;25518;47.878;15.914;2022-09-13T06:40:46;2.47;;;1.33;;
39848;SDS011;25518;47.878;15.914;2022-09-13T06:43:12;3.08;;;1.60;;
39848;SDS011;25518;47.878;15.914;2022-09-13T06:45:39;2.60;;;1.38;;
39848;SDS011;25518;47.878;15.914;2022-09-13T06:48:06;2.63;;;1.48;;
39848;SDS011;25518;47.878;15.914;2022-09-13T06:50:32;3.33;;;1.85;;
39848;SDS011;25518;47.878;15.914;2022-09-13T06:52:59;3.03;;;1.73;;
39848;SDS011;25518;47.878;15.914;2022-09-13T06:55:25;2.33;;;1.30;;
39848;SDS011;25518;47.878;15.914;2022-09-13T06:57:52;2.10;;;1.30;;
39848;SDS011;25518;47.878;15.914;2022-09-13T07:00:18;2.22;;;1.30;;
39848;SDS011;25518;47.878;15.914;2022-09-13T07:02:49;2.40;;;1.40;;
39848;SDS011;25518;47.878;15.914;2022-09-13T07:05:15;3.08;;;1.92;;
39848;SDS011;25518;47.878;15.914;2022-09-13T07:07:43;2.55;;;1.50;;
39848;SDS011;25518;47.878;15.914;2022-09-13T07:10:09;2.85;;;1.48;;
39848;SDS011;25518;47.878;15.914;2022-09-13T07:12:35;2.67;;;1.55;;
39848;SDS011;25518;47.878;15.914;2022-09-13T07:15:02;2.75;;;1.63;;
39848;SDS011;25518;47.878;15.914;2022-09-13T07:17:28;2.88;;;1.60;;
39848;SDS011;25518;47.878;15.914;2022-09-13T07:19:55;2.83;;;1.50;;
39848;SDS011;25518;47.878;15.914;2022-09-13T07:22:21;5.07;;;1.50;;
39848;SDS011;25518;47.878;15.914;2022-09-13T07:24:51;2.80;;;1.57;;
39848;SDS011;25518;47.878;15.914;2022-09-13T07:27:18;3.17;;;1.57;;
39848;SDS011;25518;47.878;15.914;2022-09-13T07:29:44;2.63;;;1.40;;
39848;SDS011;25518;47.878;15.914;2022-09-13T07:32:10;2.47;;;1.60;;
39848;SDS011;25518;47.878;15.914;2022-09-13T07:34:36;3.83;;;1.67;;
39848;SDS011;25518;47.878;15.914;2022-09-13T07:37:03;2.60;;;1.57;;
39848;SDS011;25518;47.878;15.914;2022-09-13T07:39:30;2.83;;;1.50;;
39848;SDS011;25518;47.878;15.914;2022-09-13T07:41:56;3.33;;;1.73;;
39848;SDS011;25518;47.878;15.914;2022-09-13T07:44:22;3.35;;;1.77;;
39848;SDS011;25518;47.878;15.914;2022-09-13T07:46:49;2.78;;;1.50;;
39848;SDS011;25518;47.878;15.914;2022-09-13T07:49:16;3.10;;;1.63;;
39848;SDS011;25518;47.878;15.914;2022-09-13T07:51:43;2.85;;;1.65;;
39848;SDS011;25518;47.878;15.914;2022-09-13T07:54:10;3.03;;;1.80;;
39848;SDS011;25518;47.878;15.914;2022-09-13T07:56:37;2.60;;;1.65;;
39848;SDS011;25518;47.878;15.914;2022-09-13T07:59:06;4.40;;;1.80;;
39848;SDS011;25518;47.878;15.914;2022-09-13T08:01:34;3.00;;;1.55;;
39848;SDS011;25518;47.878;15.914;2022-09-13T08:04:02;3.40;;;1.77;;
39848;SDS011;25518;47.878;15.914;2022-09-13T08:06:29;2.80;;;1.70;;
39848;SDS011;25518;47.878;15.914;2022-09-13T08:08:56;4.40;;;1.75;;
39848;SDS011;25518;47.878;15.914;2022-09-13T08:11:24;3.00;;;1.80;;
39848;SDS011;25518;47.878;15.914;2022-09-13T08:13:51;2.92;;;1.50;;
39848;SDS011;25518;47.878;15.914;2022-09-13T08:16:19;4.07;;;1.83;;
39848;SDS011;25518;47.878;15.914;2022-09-13T08:18:47;3.10;;;1.80;;
39848;SDS011;25518;47.878;15.914;2022-09-13T08:21:14;2.63;;;1.60;;
39848;SDS011;25518;47.878;15.914;2022-09-13T08:23:40;3.30;;;1.87;;
39848;SDS011;25518;47.878;15.914;2022-09-13T08:26:07;3.28;;;1.63;;
39848;SDS011;25518;47.878;15.914;2022-09-13T08:28:35;3.67;;;1.60;;
39848;SDS011;25518;47.878;15.914;2022-09-13T08:31:02;3.30;;;1.70;;
39848;SDS011;25518;47.878;15.914;2022-09-13T08:33:29;2.75;;;1.77;;
39848;SDS011;25518;47.878;15.914;2022-09-13T08:35:55;2.88;;;1.60;;
39848;SDS011;25518;47.878;15.914;2022-09-13T08:38:22;2.78;;;1.70;;
39848;SDS011;25518;47.878;15.914;2022-09-13T08:40:50;3.40;;;1.60;;
39848;SDS011;25518;47.878;15.914;2022-09-13T08:43:22;2.67;;;1.37;;
39848;SDS011;25518;47.878;15.914;2022-09-13T08:45:50;2.70;;;1.63;;
39848;SDS011;25518;47.878;15.914;2022-09-13T08:48:19;2.70;;;1.50;;
39848;SDS011;25518;47.878;15.914;2022-09-13T08:50:47;3.70;;;1.50;;
39848;SDS011;25518;47.878;15.914;2022-09-13T08:53:18;3.10;;;1.38;;
39848;SDS011;25518;47.878;15.914;2022-09-13T09:01:00;2.20;;;1.20;;
39848;SDS011;25518;47.878;15.914;2022-09-13T09:05:59;2.72;;;1.55;;
39848;SDS011;25518;47.878;15.914;2022-09-13T09:10:53;3.53;;;1.70;;
39848;SDS011;25518;47.878;15.914;2022-09-13T09:18:50;4.28;;;1.35;;
39848;SDS011;25518;47.878;15.914;2022-09-13T09:21:18;6.03;;;1.60;;
39848;SDS011;25518;47.878;15.914;2022-09-13T09:26:17;3.53;;;1.60;;
39848;SDS011;25518;47.878;15.914;2022-09-13T09:28:49;2.33;;;1.35;;
39848;SDS011;25518;47.878;15.914;2022-09-13T09:31:37;2.35;;;1.40;;
39848;SDS011;25518;47.878;15.914;2022-09-13T09:37:08;1.92;;;1.17;;
39848;SDS011;25518;47.878;15.914;2022-09-13T09:39:41;5.35;;;1.38;;
39848;SDS011;25518;47.878;15.914;2022-09-13T09:42:11;2.00;;;1.30;;
39848;SDS011;25518;47.878;15.914;2022-09-13T09:44:42;2.38;;;1.30;;
39848;SDS011;25518;47.878;15.914;2022-09-13T09:47:16;2.25;;;1.15;;
39848;SDS011;25518;47.878;15.914;2022-09-13T09:49:53;1.75;;;1.08;;
39848;SDS011;25518;47.878;15.914;2022-09-13T09:53:26;1.50;;;0.90;;
39848;SDS011;25518;47.878;15.914;2022-09-13T09:58:38;1.45;;;0.90;;
39848;SDS011;25518;47.878;15.914;2022-09-13T10:03:49;1.23;;;0.70;;
39848;SDS011;25518;47.878;15.914;2022-09-13T10:06:18;1.73;;;0.90;;
39848;SDS011;25518;47.878;15.914;2022-09-13T10:09:05;2.92;;;1.17;;
39848;SDS011;25518;47.878;15.914;2022-09-13T10:17:02;2.28;;;0.70;;
39848;SDS011;25518;47.878;15.914;2022-09-13T10:19:29;1.52;;;0.82;;
39848;SDS011;25518;47.878;15.914;2022-09-13T10:22:00;1.10;;;0.60;;
39848;SDS011;25518;47.878;15.914;2022-09-13T10:24:30;1.15;;;0.70;;
39848;SDS011;25518;47.878;15.914;2022-09-13T10:26:57;0.98;;;0.60;;
39848;SDS011;25518;47.878;15.914;2022-09-13T10:29:25;1.40;;;0.93;;
39848;SDS011;25518;47.878;15.914;2022-09-13T10:31:52;0.93;;;0.60;;
39848;SDS011;25518;47.878;15.914;2022-09-13T10:34:23;1.23;;;0.50;;
39848;SDS011;25518;47.878;15.914;2022-09-13T10:39:24;1.20;;;0.57;;
39848;SDS011;25518;47.878;15.914;2022-09-13T10:42:01;0.98;;;0.60;;
39848;SDS011;25518;47.878;15.914;2022-09-13T10:47:24;0.75;;;0.50;;
39848;SDS011;25518;47.878;15.914;2022-09-13T10:49:58;1.00;;;0.60;;
39848;SDS011;25518;47.878;15.914;2022-09-13T10:52:42;1.37;;;0.70;;
39848;SDS011;25518;47.878;15.914;2022-09-13T10:57:46;2.35;;;0.70;;
39848;SDS011;25518;47.878;15.914;2022-09-13T11:00:16;1.98;;;0.73;;
39848;SDS011;25518;47.878;15.914;2022-09-13T11:02:48;0.55;;;0.40;;
39848;SDS011;25518;47.878;15.914;2022-09-13T11:05:31;1.40;;;0.70;;
39848;SDS011;25518;47.878;15.914;2022-09-13T11:08:08;1.10;;;0.47;;
39848;SDS011;25518;47.878;15.914;2022-09-13T11:19:33;1.65;;;0.60;;
39848;SDS011;25518;47.878;15.914;2022-09-13T11:21:52;0.45;;;0.40;;
39848;SDS011;25518;47.878;15.914;2022-09-13T11:30:30;1.13;;;0.60;;
39848;SDS011;25518;47.878;15.914;2022-09-13T11:32:51;0.93;;;0.40;;
39848;SDS011;25518;47.878;15.914;2022-09-13T11:44:25;0.80;;;0.43;;
39848;SDS011;25518;47.878;15.914;2022-09-13T11:52:06;0.63;;;0.45;;
39848;SDS011;25518;47.878;15.914;2022-09-13T11:57:16;0.57;;;0.50;;
39848;SDS011;25518;47.878;15.914;2022-09-13T11:59:54;1.17;;;0.50;;
39848;SDS011;25518;47.878;15.914;2022-09-13T12:04:54;0.77;;;0.60;;
39848;SDS011;25518;47.878;15.914;2022-09-13T12:07:28;0.73;;;0.50;;
39848;SDS011;25518;47.878;15.914;2022-09-13T12:10:01;0.80;;;0.40;;
39848;SDS011;25518;47.878;15.914;2022-09-13T12:12:32;0.75;;;0.35;;
39848;SDS011;25518;47.878;15.914;2022-09-13T12:15:02;0.80;;;0.50;;
39848;SDS011;25518;47.878;15.914;2022-09-13T12:17:39;0.97;;;0.50;;
39848;SDS011;25518;47.878;15.914;2022-09-13T12:20:12;1.02;;;0.60;;
39848;SDS011;25518;47.878;15.914;2022-09-13T12:22:40;0.82;;;0.52;;
39848;SDS011;25518;47.878;15.914;2022-09-13T12:25:23;0.73;;;0.40;;
39848;SDS011;25518;47.878;15.914;2022-09-13T12:28:05;1.00;;;0.60;;
39848;SDS011;25518;47.878;15.914;2022-09-13T12:30:44;2.20;;;0.50;;
39848;SDS011;25518;47.878;15.914;2022-09-13T12:33:18;0.50;;;0.50;;
39848;SDS011;25518;47.878;15.914;2022-09-13T12:35:57;0.87;;;0.50;;
39848;SDS011;25518;47.878;15.914;2022-09-13T12:38:55;1.17;;;0.50;;
39848;SDS011;25518;47.878;15.914;2022-09-13T12:54:39;0.40;;;0.30;;
39848;SDS011;25518;47.878;15.914;2022-09-13T13:05:17;0.73;;;0.40;;
39848;SDS011;25518;47.878;15.914;2022-09-13T13:07:51;0.73;;;0.45;;
39848;SDS011;25518;47.878;15.914;2022-09-13T13:10:25;0.73;;;0.50;;
39848;SDS011;25518;47.878;15.914;2022-09-13T13:12:55;0.50;;;0.35;;
39848;SDS011;25518;47.878;15.914;2022-09-13T13:18:19;0.80;;;0.43;;
39848;SDS011;25518;47.878;15.914;2022-09-13T13:25:56;0.50;;;0.40;;
39848;SDS011;25518;47.878;15.914;2022-09-13T13:28:48;0.30;;;0.30;;
39848;SDS011;25518;47.878;15.914;2022-09-13T13:33:55;0.38;;;0.32;;
39848;SDS011;25518;47.878;15.914;2022-09-13T13:36:25;1.13;;;0.50;;
39848;SDS011;25518;47.878;15.914;2022-09-13T13:38:59;0.57;;;0.30;;
39848;SDS011;25518;47.878;15.914;2022-09-13T13:44:50;0.68;;;0.50;;
39848;SDS011;25518;47.878;15.914;2022-09-13T13:46:47;0.73;;;0.50;;
39848;SDS011;25518;47.878;15.914;2022-09-13T14:00:19;1.45;;;0.50;;
39848;SDS011;25518;47.878;15.914;2022-09-13T14:05:49;0.30;;;0.30;;
39848;SDS011;25518;47.878;15.914;2022-09-13T14:13:38;1.73;;;1.00;;
39848;SDS011;25518;47.878;15.914;2022-09-13T14:21:43;2.08;;;1.00;;
39848;SDS011;25518;47.878;15.914;2022-09-13T14:24:17;1.37;;;0.60;;
39848;SDS011;25518;47.878;15.914;2022-09-13T14:26:46;1.05;;;0.70;;
39848;SDS011;25518;47.878;15.914;2022-09-13T14:29:15;0.80;;;0.40;;
39848;SDS011;25518;47.878;15.914;2022-09-13T14:31:45;0.40;;;0.30;;
39848;SDS011;25518;47.878;15.914;2022-09-13T14:34:19;0.47;;;0.30;;
39848;SDS011;25518;47.878;15.914;2022-09-13T14:36:51;0.82;;;0.32;;
39848;SDS011;25518;47.878;15.914;2022-09-13T14:39:19;0.70;;;0.30;;
39848;SDS011;25518;47.878;15.914;2022-09-13T14:41:46;3.72;;;0.45;;
39848;SDS011;25518;47.878;15.914;2022-09-13T14:44:17;1.10;;;0.40;;
39848;SDS011;25518;47.878;15.914;2022-09-13T14:46:48;3.37;;;1.57;;
39848;SDS011;25518;47.878;15.914;2022-09-13T14:49:23;1.88;;;0.85;;
39848;SDS011;25518;47.878;15.914;2022-09-13T14:51:55;0.93;;;0.45;;
39848;SDS011;25518;47.878;15.914;2022-09-13T14:54:31;1.53;;;0.70;;
39848;SDS011;25518;47.878;15.914;2022-09-13T14:57:03;1.13;;;0.63;;
39848;SDS011;25518;47.878;15.914;2022-09-13T14:59:35;1.08;;;0.43;;
39848;SDS011;25518;47.878;15.914;2022-09-13T15:02:25;0.52;;;0.40;;
39848;SDS011;25518;47.878;15.914;2022-09-13T15:04:57;1.00;;;0.50;;
39848;SDS011;25518;47.878;15.914;2022-09-13T15:09:54;3.10;;;1.50;;
39848;SDS011;25518;47.878;15.914;2022-09-13T15:12:29;1.20;;;0.50;;
39848;SDS011;25518;47.878;15.914;2022-09-13T15:17:58;0.55;;;0.40;;
39848;SDS011;25518;47.878;15.914;2022-09-13T15:20:44;2.60;;;0.77;;
39848;SDS011;25518;47.878;15.914;2022-09-13T15:23:23;1.65;;;0.85;;
39848;SDS011;25518;47.878;15.914;2022-09-13T15:25:54;1.23;;;0.80;;
39848;SDS011;25518;47.878;15.914;2022-09-13T15:28:30;1.83;;;0.90;;
39848;SDS011;25518;47.878;15.914;2022-09-13T15:31:00;2.38;;;1.00;;
39848;SDS011;25518;47.878;15.914;2022-09-13T15:33:28;1.98;;;0.90;;
39848;SDS011;25518;47.878;15.914;2022-09-13T15:36:12;2.25;;;1.20;;
39848;SDS011;25518;47.878;15.914;2022-09-13T15:38:55;2.75;;;1.20;;
39848;SDS011;25518;47.878;15.914;2022-09-13T15:41:27;4.00;;;1.20;;
39848;SDS011;25518;47.878;15.914;2022-09-13T15:44:03;3.55;;;1.65;;
39848;SDS011;25518;47.878;15.914;2022-09-13T15:46:31;3.35;;;1.50;;
39848;SDS011;25518;47.878;15.914;2022-09-13T15:49:14;3.10;;;1.52;;
39848;SDS011;25518;47.878;15.914;2022-09-13T15:51:42;2.95;;;1.30;;
39848;SDS011;25518;47.878;15.914;2022-09-13T15:54:09;3.30;;;1.60;;
39848;SDS011;25518;47.878;15.914;2022-09-13T15:56:37;3.43;;;1.17;;
39848;SDS011;25518;47.878;15.914;2022-09-13T15:59:10;2.78;;;1.35;;
39848;SDS011;25518;47.878;15.914;2022-09-13T16:01:39;2.97;;;1.52;;
39848;SDS011;25518;47.878;15.914;2022-09-13T16:04:05;3.15;;;1.63;;
39848;SDS011;25518;47.878;15.914;2022-09-13T16:06:32;3.20;;;1.52;;
39848;SDS011;25518;47.878;15.914;2022-09-13T16:08:58;3.70;;;1.40;;
39848;SDS011;25518;47.878;15.914;2022-09-13T16:11:25;2.45;;;1.40;;
39848;SDS011;25518;47.878;15.914;2022-09-13T16:13:51;2.67;;;1.30;;
39848;SDS011;25518;47.878;15.914;2022-09-13T16:16:17;2.65;;;1.42;;
39848;SDS011;25518;47.878;15.914;2022-09-13T16:18:44;3.63;;;1.60;;
39848;SDS011;25518;47.878;15.914;2022-09-13T16:21:10;2.35;;;1.40;;
39848;SDS011;25518;47.878;15.914;2022-09-13T16:23:36;2.22;;;1.10;;
39848;SDS011;25518;47.878;15.914;2022-09-13T16:26:02;3.55;;;1.35;;
39848;SDS011;25518;47.878;15.914;2022-09-13T16:28:30;3.35;;;1.45;;
39848;SDS011;25518;47.878;15.914;2022-09-13T16:30:56;5.53;;;1.48;;
39848;SDS011;25518;47.878;15.914;2022-09-13T16:33:22;2.77;;;1.50;;
39848;SDS011;25518;47.878;15.914;2022-09-13T16:35:48;4.30;;;1.47;;
39848;SDS011;25518;47.878;15.914;2022-09-13T16:38:14;3.10;;;1.55;;
39848;SDS011;25518;47.878;15.914;2022-09-13T16:40:40;3.50;;;1.50;;
39848;SDS011;25518;47.878;15.914;2022-09-13T16:43:08;3.30;;;1.80;;
39848;SDS011;25518;47.878;15.914;2022-09-13T16:45:36;3.30;;;1.65;;
39848;SDS011;25518;47.878;15.914;2022-09-13T16:48:04;3.72;;;1.40;;
39848;SDS011;25518;47.878;15.914;2022-09-13T16:50:32;3.92;;;1.52;;
39848;SDS011;25518;47.878;15.914;2022-09-13T16:52:59;3.88;;;1.50;;
39848;SDS011;25518;47.878;15.914;2022-09-13T16:55:25;3.80;;;1.52;;
39848;SDS011;25518;47.878;15.914;2022-09-13T16:57:52;2.33;;;1.55;;
39848;SDS011;25518;47.878;15.914;2022-09-13T17:00:18;3.87;;;1.60;;
39848;SDS011;25518;47.878;15.914;2022-09-13T17:02:44;4.03;;;1.48;;
39848;SDS011;25518;47.878;15.914;2022-09-13T17:05:12;2.67;;;1.75;;
39848;SDS011;25518;47.878;15.914;2022-09-13T17:07:38;3.15;;;1.70;;
39848;SDS011;25518;47.878;15.914;2022-09-13T17:10:05;3.63;;;1.45;;
39848;SDS011;25518;47.878;15.914;2022-09-13T17:12:32;2.70;;;1.50;;
39848;SDS011;25518;47.878;15.914;2022-09-13T17:14:59;3.17;;;1.70;;
39848;SDS011;25518;47.878;15.914;2022-09-13T17:17:25;2.10;;;1.20;;
39848;SDS011;25518;47.878;15.914;2022-09-13T17:19:51;2.90;;;1.60;;
39848;SDS011;25518;47.878;15.914;2022-09-13T17:22:17;4.28;;;1.80;;
39848;SDS011;25518;47.878;15.914;2022-09-13T17:24:43;2.75;;;1.50;;
39848;SDS011;25518;47.878;15.914;2022-09-13T17:27:09;3.17;;;1.45;;
39848;SDS011;25518;47.878;15.914;2022-09-13T17:29:35;3.60;;;1.42;;
39848;SDS011;25518;47.878;15.914;2022-09-13T17:32:02;3.85;;;1.65;;
39848;SDS011;25518;47.878;15.914;2022-09-13T17:34:29;3.47;;;1.55;;
39848;SDS011;25518;47.878;15.914;2022-09-13T17:36:58;2.78;;;1.60;;
39848;SDS011;25518;47.878;15.914;2022-09-13T17:39:25;4.35;;;2.00;;
39848;SDS011;25518;47.878;15.914;2022-09-13T17:41:51;3.45;;;1.73;;
39848;SDS011;25518;47.878;15.914;2022-09-13T17:44:17;2.70;;;1.33;;
39848;SDS011;25518;47.878;15.914;2022-09-13T17:46:43;4.78;;;1.90;;
39848;SDS011;25518;47.878;15.914;2022-09-13T17:49:09;2.75;;;1.40;;
39848;SDS011;25518;47.878;15.914;2022-09-13T17:51:35;4.60;;;1.83;;
39848;SDS011;25518;47.878;15.914;2022-09-13T17:54:03;2.83;;;1.73;;
39848;SDS011;25518;47.878;15.914;2022-09-13T17:56:32;4.22;;;1.73;;
39848;SDS011;25518;47.878;15.914;2022-09-13T18:01:34;4.07;;;1.80;;
39848;SDS011;25518;47.878;15.914;2022-09-13T18:04:01;6.20;;;1.65;;
39848;SDS011;25518;47.878;15.914;2022-09-13T18:06:28;7.53;;;2.00;;